sensor_id;sensor_type;location;lat;lon;timestamp;pressure;altitude;pressure_sealevel;temperature;humidity
59289;BME280;45056;47.602;9.886;2022-07-01T00:00:56;93047.59;;;19.48;66.58
59289;BME280;45056;47.602;9.886;2022-07-01T00:03:24;93050.34;;;19.48;66.70
59289;BME280;45056;47.602;9.886;2022-07-01T00:05:52;93058.63;;;19.48;66.53
59289;BME280;45056;47.602;9.886;2022-07-01T00:08:20;93054.09;;;19.44;66.69
59289;BME280;45056;47.602;9.886;2022-07-01T00:10:48;93059.09;;;19.40;66.61
59289;BME280;45056;47.602;9.886;2022-07-01T00:13:16;93049.28;;;19.34;66.70
59289;BME280;45056;47.602;9.886;2022-07-01T00:15:45;93051.28;;;19.27;66.75
59289;BME280;45056;47.602;9.886;2022-07-01T00:18:14;93046.00;;;19.24;66.99
59289;BME280;45056;47.602;9.886;2022-07-01T00:20:42;93047.50;;;19.19;66.90
59289;BME280;45056;47.602;9.886;2022-07-01T00:23:10;93043.19;;;19.12;66.35
59289;BME280;45056;47.602;9.886;2022-07-01T00:25:39;93034.16;;;19.06;66.33
59289;BME280;45056;47.602;9.886;2022-07-01T00:28:07;93040.16;;;19.05;66.03
59289;BME280;45056;47.602;9.886;2022-07-01T00:30:37;93037.38;;;18.99;65.99
59289;BME280;45056;47.602;9.886;2022-07-01T00:33:06;93048.84;;;18.92;65.92
59289;BME280;45056;47.602;9.886;2022-07-01T00:35:34;93045.28;;;18.85;66.06
59289;BME280;45056;47.602;9.886;2022-07-01T00:38:03;93048.28;;;18.82;66.21
59289;BME280;45056;47.602;9.886;2022-07-01T00:40:31;93061.06;;;18.79;66.47
59289;BME280;45056;47.602;9.886;2022-07-01T00:42:59;93060.03;;;18.77;66.32
59289;BME280;45056;47.602;9.886;2022-07-01T00:45:27;93054.00;;;18.72;66.43
59289;BME280;45056;47.602;9.886;2022-07-01T00:47:55;93045.69;;;18.67;66.03
59289;BME280;45056;47.602;9.886;2022-07-01T00:50:25;93019.84;;;18.58;65.84
59289;BME280;45056;47.602;9.886;2022-07-01T00:52:53;93005.03;;;18.50;66.00
59289;BME280;45056;47.602;9.886;2022-07-01T00:55:21;93005.47;;;18.43;65.90
59289;BME280;45056;47.602;9.886;2022-07-01T00:57:49;93003.44;;;18.38;66.09
59289;BME280;45056;47.602;9.886;2022-07-01T01:00:19;93001.41;;;18.33;66.39
59289;BME280;45056;47.602;9.886;2022-07-01T01:02:48;92993.38;;;18.29;66.38
59289;BME280;45056;47.602;9.886;2022-07-01T01:05:17;93008.91;;;18.32;66.26
59289;BME280;45056;47.602;9.886;2022-07-01T01:07:48;93008.66;;;18.36;66.30
59289;BME280;45056;47.602;9.886;2022-07-01T01:10:17;93006.44;;;18.40;65.90
59289;BME280;45056;47.602;9.886;2022-07-01T01:12:46;93013.50;;;18.41;66.09
59289;BME280;45056;47.602;9.886;2022-07-01T01:15:18;93009.69;;;18.38;66.28
59289;BME280;45056;47.602;9.886;2022-07-01T01:17:46;93009.19;;;18.34;66.07
59289;BME280;45056;47.602;9.886;2022-07-01T01:20:16;93010.91;;;18.31;65.95
59289;BME280;45056;47.602;9.886;2022-07-01T01:22:46;93012.66;;;18.29;66.14
59289;BME280;45056;47.602;9.886;2022-07-01T01:25:16;93007.88;;;18.29;66.11
59289;BME280;45056;47.602;9.886;2022-07-01T01:27:44;92995.63;;;18.30;65.97
59289;BME280;45056;47.602;9.886;2022-07-01T01:30:13;92998.88;;;18.29;65.87
59289;BME280;45056;47.602;9.886;2022-07-01T01:32:41;93000.88;;;18.28;66.06
59289;BME280;45056;47.602;9.886;2022-07-01T01:35:10;93003.63;;;18.28;66.30
59289;BME280;45056;47.602;9.886;2022-07-01T01:37:40;93020.16;;;18.28;66.09
59289;BME280;45056;47.602;9.886;2022-07-01T01:40:10;93019.88;;;18.26;65.87
59289;BME280;45056;47.602;9.886;2022-07-01T01:42:40;93027.88;;;18.24;66.23
59289;BME280;45056;47.602;9.886;2022-07-01T01:45:09;93043.88;;;18.20;66.13
59289;BME280;45056;47.602;9.886;2022-07-01T01:47:38;93035.34;;;18.18;66.26
59289;BME280;45056;47.602;9.886;2022-07-01T01:50:08;93030.06;;;18.14;66.23
59289;BME280;45056;47.602;9.886;2022-07-01T01:52:38;93017.78;;;18.10;66.07
59289;BME280;45056;47.602;9.886;2022-07-01T01:55:11;93015.22;;;18.06;65.95
59289;BME280;45056;47.602;9.886;2022-07-01T01:57:39;93015.72;;;18.05;65.79
59289;BME280;45056;47.602;9.886;2022-07-01T02:00:08;93012.22;;;18.04;65.83
59289;BME280;45056;47.602;9.886;2022-07-01T02:02:37;93005.94;;;18.03;65.63
59289;BME280;45056;47.602;9.886;2022-07-01T02:05:09;92997.94;;;18.06;65.81
59289;BME280;45056;47.602;9.886;2022-07-01T02:07:39;92975.44;;;18.07;65.60
59289;BME280;45056;47.602;9.886;2022-07-01T02:10:08;92944.91;;;18.05;65.83
59289;BME280;45056;47.602;9.886;2022-07-01T02:12:37;92908.25;;;17.93;66.93
59289;BME280;45056;47.602;9.886;2022-07-01T02:15:06;92913.44;;;17.80;67.69
59289;BME280;45056;47.602;9.886;2022-07-01T02:17:35;92916.59;;;17.72;67.98
59289;BME280;45056;47.602;9.886;2022-07-01T02:20:04;92917.56;;;17.64;68.50
59289;BME280;45056;47.602;9.886;2022-07-01T02:22:33;92899.97;;;17.55;69.25
59289;BME280;45056;47.602;9.886;2022-07-01T02:25:01;92873.13;;;17.44;69.50
59289;BME280;45056;47.602;9.886;2022-07-01T02:27:30;92846.53;;;17.30;70.15
59289;BME280;45056;47.602;9.886;2022-07-01T02:29:59;92815.94;;;17.16;70.77
59289;BME280;45056;47.602;9.886;2022-07-01T02:32:27;92820.59;;;17.05;71.07
59289;BME280;45056;47.602;9.886;2022-07-01T02:34:56;92838.69;;;16.96;71.34
59289;BME280;45056;47.602;9.886;2022-07-01T02:37:24;92847.53;;;17.00;71.59
59289;BME280;45056;47.602;9.886;2022-07-01T02:39:52;92841.59;;;17.08;71.27
59289;BME280;45056;47.602;9.886;2022-07-01T02:42:21;92838.88;;;17.13;70.96
59289;BME280;45056;47.602;9.886;2022-07-01T02:44:53;92850.19;;;17.21;70.70
59289;BME280;45056;47.602;9.886;2022-07-01T02:47:23;92870.03;;;17.31;70.68
59289;BME280;45056;47.602;9.886;2022-07-01T02:49:55;92876.38;;;17.43;70.61
59289;BME280;45056;47.602;9.886;2022-07-01T02:52:23;92869.44;;;17.53;70.57
59289;BME280;45056;47.602;9.886;2022-07-01T02:54:51;92870.03;;;17.63;70.43
59289;BME280;45056;47.602;9.886;2022-07-01T02:57:20;92881.81;;;17.69;70.06
59289;BME280;45056;47.602;9.886;2022-07-01T02:59:48;92883.38;;;17.76;69.80
59289;BME280;45056;47.602;9.886;2022-07-01T03:02:17;92882.66;;;17.81;69.56
59289;BME280;45056;47.602;9.886;2022-07-01T03:04:48;92885.19;;;17.85;69.45
59289;BME280;45056;47.602;9.886;2022-07-01T03:07:17;92909.72;;;17.88;69.18
59289;BME280;45056;47.602;9.886;2022-07-01T03:09:45;92911.72;;;17.88;69.04
59289;BME280;45056;47.602;9.886;2022-07-01T03:12:14;92917.19;;;17.82;68.93
59289;BME280;45056;47.602;9.886;2022-07-01T03:14:56;92921.69;;;17.80;68.78
59289;BME280;45056;47.602;9.886;2022-07-01T03:17:26;92922.44;;;17.80;68.83
59289;BME280;45056;47.602;9.886;2022-07-01T03:19:57;92927.66;;;17.78;68.87
59289;BME280;45056;47.602;9.886;2022-07-01T03:22:28;92929.63;;;17.72;69.13
59289;BME280;45056;47.602;9.886;2022-07-01T03:24:58;92934.06;;;17.64;69.32
59289;BME280;45056;47.602;9.886;2022-07-01T03:27:27;92937.78;;;17.60;69.64
59289;BME280;45056;47.602;9.886;2022-07-01T03:29:55;92927.28;;;17.59;69.80
59289;BME280;45056;47.602;9.886;2022-07-01T03:32:23;92924.72;;;17.55;69.76
59289;BME280;45056;47.602;9.886;2022-07-01T03:34:53;92929.22;;;17.53;69.63
59289;BME280;45056;47.602;9.886;2022-07-01T03:37:23;92942.97;;;17.53;69.89
59289;BME280;45056;47.602;9.886;2022-07-01T03:39:52;92959.22;;;17.51;70.14
59289;BME280;45056;47.602;9.886;2022-07-01T03:42:20;92972.41;;;17.47;69.92
59289;BME280;45056;47.602;9.886;2022-07-01T03:44:48;92970.59;;;17.38;69.87
59289;BME280;45056;47.602;9.886;2022-07-01T03:47:16;92977.00;;;17.29;69.87
59289;BME280;45056;47.602;9.886;2022-07-01T03:49:44;92984.72;;;17.25;70.13
59289;BME280;45056;47.602;9.886;2022-07-01T03:52:12;92999.44;;;17.22;69.75
59289;BME280;45056;47.602;9.886;2022-07-01T03:54:41;92989.59;;;17.15;69.53
59289;BME280;45056;47.602;9.886;2022-07-01T03:57:09;92985.75;;;17.07;69.33
59289;BME280;45056;47.602;9.886;2022-07-01T03:59:38;92993.94;;;17.01;69.88
59289;BME280;45056;47.602;9.886;2022-07-01T04:02:07;93007.84;;;16.97;69.62
59289;BME280;45056;47.602;9.886;2022-07-01T04:04:35;93012.34;;;16.95;69.51
59289;BME280;45056;47.602;9.886;2022-07-01T04:07:06;93010.53;;;16.92;69.19
59289;BME280;45056;47.602;9.886;2022-07-01T04:09:35;93022.78;;;16.91;69.23
59289;BME280;45056;47.602;9.886;2022-07-01T04:12:05;93028.19;;;16.85;68.92
59289;BME280;45056;47.602;9.886;2022-07-01T04:14:38;93034.09;;;16.78;68.96
59289;BME280;45056;47.602;9.886;2022-07-01T04:17:07;93042.44;;;16.68;69.04
59289;BME280;45056;47.602;9.886;2022-07-01T04:19:35;93043.81;;;16.58;69.01
59289;BME280;45056;47.602;9.886;2022-07-01T04:22:03;93050.44;;;16.51;69.31
59289;BME280;45056;47.602;9.886;2022-07-01T04:24:49;93054.84;;;16.43;69.37
59289;BME280;45056;47.602;9.886;2022-07-01T04:27:18;93049.25;;;16.37;69.02
59289;BME280;45056;47.602;9.886;2022-07-01T04:29:46;93068.31;;;16.26;68.64
59289;BME280;45056;47.602;9.886;2022-07-01T04:32:14;93071.63;;;16.15;68.85
59289;BME280;45056;47.602;9.886;2022-07-01T04:34:42;93078.75;;;16.07;68.87
59289;BME280;45056;47.602;9.886;2022-07-01T04:37:10;93087.06;;;15.97;68.82
59289;BME280;45056;47.602;9.886;2022-07-01T04:39:38;93088.66;;;15.89;69.25
59289;BME280;45056;47.602;9.886;2022-07-01T04:42:06;93097.53;;;15.84;69.38
59289;BME280;45056;47.602;9.886;2022-07-01T04:44:37;93103.69;;;15.79;69.38
59289;BME280;45056;47.602;9.886;2022-07-01T04:47:05;93096.41;;;15.76;69.75
59289;BME280;45056;47.602;9.886;2022-07-01T04:49:33;93091.19;;;15.78;70.87
59289;BME280;45056;47.602;9.886;2022-07-01T04:52:02;93092.53;;;15.82;70.17
59289;BME280;45056;47.602;9.886;2022-07-01T04:54:30;93088.34;;;15.87;69.52
59289;BME280;45056;47.602;9.886;2022-07-01T04:56:58;93092.91;;;15.90;69.10
59289;BME280;45056;47.602;9.886;2022-07-01T04:59:26;93109.38;;;15.90;68.59
59289;BME280;45056;47.602;9.886;2022-07-01T05:01:56;93103.59;;;15.88;68.26
59289;BME280;45056;47.602;9.886;2022-07-01T05:04:25;93123.59;;;15.89;68.08
59289;BME280;45056;47.602;9.886;2022-07-01T05:06:54;93128.47;;;15.84;67.88
59289;BME280;45056;47.602;9.886;2022-07-01T05:09:22;93128.66;;;15.81;67.92
59289;BME280;45056;47.602;9.886;2022-07-01T05:11:50;93135.06;;;15.78;67.75
59289;BME280;45056;47.602;9.886;2022-07-01T05:14:18;93154.44;;;15.74;67.48
59289;BME280;45056;47.602;9.886;2022-07-01T05:16:46;93163.81;;;15.67;67.38
59289;BME280;45056;47.602;9.886;2022-07-01T05:19:15;93161.63;;;15.56;66.79
59289;BME280;45056;47.602;9.886;2022-07-01T05:22:01;93151.94;;;15.46;67.50
59289;BME280;45056;47.602;9.886;2022-07-01T05:24:31;93148.16;;;15.43;67.74
59289;BME280;45056;47.602;9.886;2022-07-01T05:27:01;93140.56;;;15.38;67.61
59289;BME280;45056;47.602;9.886;2022-07-01T05:29:30;93136.03;;;15.35;67.55
59289;BME280;45056;47.602;9.886;2022-07-01T05:31:58;93132.72;;;15.31;67.40
59289;BME280;45056;47.602;9.886;2022-07-01T05:34:28;93136.06;;;15.26;67.39
59289;BME280;45056;47.602;9.886;2022-07-01T05:36:56;93135.50;;;15.22;67.66
59289;BME280;45056;47.602;9.886;2022-07-01T05:39:24;93142.69;;;15.19;67.90
59289;BME280;45056;47.602;9.886;2022-07-01T05:41:52;93152.88;;;15.19;67.81
59289;BME280;45056;47.602;9.886;2022-07-01T05:44:20;93166.56;;;15.19;68.12
59289;BME280;45056;47.602;9.886;2022-07-01T05:46:50;93169.59;;;15.21;68.08
59289;BME280;45056;47.602;9.886;2022-07-01T05:49:18;93165.34;;;15.20;67.82
59289;BME280;45056;47.602;9.886;2022-07-01T05:51:47;93159.56;;;15.18;67.68
59289;BME280;45056;47.602;9.886;2022-07-01T05:54:15;93164.03;;;15.15;67.94
59289;BME280;45056;47.602;9.886;2022-07-01T05:56:43;93167.22;;;15.13;67.77
59289;BME280;45056;47.602;9.886;2022-07-01T05:59:11;93165.69;;;15.12;68.09
59289;BME280;45056;47.602;9.886;2022-07-01T06:01:39;93166.00;;;15.14;68.18
59289;BME280;45056;47.602;9.886;2022-07-01T06:04:07;93172.25;;;15.15;68.15
59289;BME280;45056;47.602;9.886;2022-07-01T06:06:34;93191.88;;;15.13;68.24
59289;BME280;45056;47.602;9.886;2022-07-01T06:09:04;93191.88;;;15.13;68.49
59289;BME280;45056;47.602;9.886;2022-07-01T06:11:32;93175.44;;;15.13;68.58
59289;BME280;45056;47.602;9.886;2022-07-01T06:14:00;93170.25;;;15.15;68.57
59289;BME280;45056;47.602;9.886;2022-07-01T06:16:28;93170.53;;;15.18;68.67
59289;BME280;45056;47.602;9.886;2022-07-01T06:18:56;93186.81;;;15.21;68.29
59289;BME280;45056;47.602;9.886;2022-07-01T06:21:24;93188.63;;;15.24;68.31
59289;BME280;45056;47.602;9.886;2022-07-01T06:23:52;93201.84;;;15.26;68.15
59289;BME280;45056;47.602;9.886;2022-07-01T06:26:21;93194.09;;;15.24;68.02
59289;BME280;45056;47.602;9.886;2022-07-01T06:28:50;93209.78;;;15.24;67.90
59289;BME280;45056;47.602;9.886;2022-07-01T06:31:18;93210.56;;;15.24;67.88
59289;BME280;45056;47.602;9.886;2022-07-01T06:33:46;93226.06;;;15.27;67.81
59289;BME280;45056;47.602;9.886;2022-07-01T06:36:14;93228.97;;;15.24;67.35
59289;BME280;45056;47.602;9.886;2022-07-01T06:38:42;93239.63;;;15.22;67.35
59289;BME280;45056;47.602;9.886;2022-07-01T06:41:10;93247.56;;;15.20;67.06
59289;BME280;45056;47.602;9.886;2022-07-01T06:43:56;93253.06;;;15.20;67.30
59289;BME280;45056;47.602;9.886;2022-07-01T06:46:26;93251.53;;;15.19;67.11
59289;BME280;45056;47.602;9.886;2022-07-01T06:48:55;93251.53;;;15.19;67.20
59289;BME280;45056;47.602;9.886;2022-07-01T06:51:25;93246.06;;;15.19;67.02
59289;BME280;45056;47.602;9.886;2022-07-01T06:53:54;93245.13;;;15.22;66.92
59289;BME280;45056;47.602;9.886;2022-07-01T06:56:22;93236.75;;;15.25;66.77
59289;BME280;45056;47.602;9.886;2022-07-01T06:58:50;93227.59;;;15.28;67.01
59289;BME280;45056;47.602;9.886;2022-07-01T07:01:19;93234.88;;;15.32;67.15
59289;BME280;45056;47.602;9.886;2022-07-01T07:03:47;93248.88;;;15.34;66.77
59289;BME280;45056;47.602;9.886;2022-07-01T07:06:15;93242.00;;;15.38;67.23
59289;BME280;45056;47.602;9.886;2022-07-01T07:08:43;93245.97;;;15.37;66.97
59289;BME280;45056;47.602;9.886;2022-07-01T07:11:11;93260.91;;;15.36;67.08
59289;BME280;45056;47.602;9.886;2022-07-01T07:13:42;93261.19;;;15.38;66.75
59289;BME280;45056;47.602;9.886;2022-07-01T07:16:10;93258.25;;;15.42;66.93
59289;BME280;45056;47.602;9.886;2022-07-01T07:18:39;93257.38;;;15.45;66.77
59289;BME280;45056;47.602;9.886;2022-07-01T07:21:07;93269.84;;;15.46;66.64
59289;BME280;45056;47.602;9.886;2022-07-01T07:23:35;93270.59;;;15.47;66.64
59289;BME280;45056;47.602;9.886;2022-07-01T07:26:04;93269.38;;;15.48;66.74
59289;BME280;45056;47.602;9.886;2022-07-01T07:28:32;93270.88;;;15.49;66.75
59289;BME280;45056;47.602;9.886;2022-07-01T07:31:00;93287.34;;;15.49;66.45
59289;BME280;45056;47.602;9.886;2022-07-01T07:33:28;93282.34;;;15.47;66.38
59289;BME280;45056;47.602;9.886;2022-07-01T07:35:57;93267.84;;;15.47;66.33
59289;BME280;45056;47.602;9.886;2022-07-01T07:38:25;93251.69;;;15.49;66.38
59289;BME280;45056;47.602;9.886;2022-07-01T07:40:53;93257.75;;;15.53;66.49
59289;BME280;45056;47.602;9.886;2022-07-01T07:43:21;93255.44;;;15.61;66.47
59289;BME280;45056;47.602;9.886;2022-07-01T07:45:49;93251.59;;;15.67;66.58
59289;BME280;45056;47.602;9.886;2022-07-01T07:48:18;93258.22;;;15.76;66.15
59289;BME280;45056;47.602;9.886;2022-07-01T07:50:46;93262.63;;;15.82;65.36
59289;BME280;45056;47.602;9.886;2022-07-01T07:53:16;93262.41;;;15.86;65.10
59289;BME280;45056;47.602;9.886;2022-07-01T07:55:44;93249.19;;;15.84;65.10
59289;BME280;45056;47.602;9.886;2022-07-01T07:58:12;93249.66;;;15.83;65.19
59289;BME280;45056;47.602;9.886;2022-07-01T08:00:40;93256.66;;;15.84;65.11
59289;BME280;45056;47.602;9.886;2022-07-01T08:03:08;93261.69;;;15.85;65.31
59289;BME280;45056;47.602;9.886;2022-07-01T08:05:36;93267.00;;;15.89;65.06
59289;BME280;45056;47.602;9.886;2022-07-01T08:08:04;93274.31;;;15.92;65.11
59289;BME280;45056;47.602;9.886;2022-07-01T08:10:33;93268.34;;;15.94;64.59
59289;BME280;45056;47.602;9.886;2022-07-01T08:13:01;93266.09;;;15.92;64.25
59289;BME280;45056;47.602;9.886;2022-07-01T08:15:31;93274.50;;;15.89;63.82
59289;BME280;45056;47.602;9.886;2022-07-01T08:17:59;93281.63;;;15.86;64.14
59289;BME280;45056;47.602;9.886;2022-07-01T08:20:28;93274.63;;;15.85;64.49
59289;BME280;45056;47.602;9.886;2022-07-01T08:22:56;93277.84;;;15.83;64.32
59289;BME280;45056;47.602;9.886;2022-07-01T08:25:24;93280.75;;;15.80;63.91
59289;BME280;45056;47.602;9.886;2022-07-01T08:27:54;93278.94;;;15.77;64.17
59289;BME280;45056;47.602;9.886;2022-07-01T08:30:22;93267.41;;;15.72;64.07
59289;BME280;45056;47.602;9.886;2022-07-01T08:32:50;93276.56;;;15.69;64.04
59289;BME280;45056;47.602;9.886;2022-07-01T08:35:18;93250.66;;;15.70;64.20
59289;BME280;45056;47.602;9.886;2022-07-01T08:37:46;93258.22;;;15.76;64.41
59289;BME280;45056;47.602;9.886;2022-07-01T08:40:14;93266.59;;;15.81;64.57
59289;BME280;45056;47.602;9.886;2022-07-01T08:42:42;93263.19;;;15.86;64.74
59289;BME280;45056;47.602;9.886;2022-07-01T08:45:11;93250.84;;;15.91;64.70
59289;BME280;45056;47.602;9.886;2022-07-01T08:47:49;93254.16;;;15.95;64.20
59289;BME280;45056;47.602;9.886;2022-07-01T08:50:18;93242.25;;;15.98;63.67
59289;BME280;45056;47.602;9.886;2022-07-01T08:52:46;93227.75;;;15.98;62.93
59289;BME280;45056;47.602;9.886;2022-07-01T08:55:14;93248.03;;;16.00;63.05
59289;BME280;45056;47.602;9.886;2022-07-01T08:57:42;93242.34;;;16.04;63.19
59289;BME280;45056;47.602;9.886;2022-07-01T09:00:13;93240.94;;;16.09;63.42
59289;BME280;45056;47.602;9.886;2022-07-01T09:02:56;93245.50;;;16.12;63.94
59289;BME280;45056;47.602;9.886;2022-07-01T09:05:27;93238.78;;;16.13;63.96
59289;BME280;45056;47.602;9.886;2022-07-01T09:07:58;93251.56;;;16.16;64.49
59289;BME280;45056;47.602;9.886;2022-07-01T09:10:30;93261.31;;;16.17;64.66
59289;BME280;45056;47.602;9.886;2022-07-01T09:13:04;93256.31;;;16.15;64.54
59289;BME280;45056;47.602;9.886;2022-07-01T09:15:36;93259.50;;;16.14;64.63
59289;BME280;45056;47.602;9.886;2022-07-01T09:18:10;93250.97;;;16.12;64.70
59289;BME280;45056;47.602;9.886;2022-07-01T09:20:41;93247.28;;;16.15;64.67
59289;BME280;45056;47.602;9.886;2022-07-01T09:23:12;93253.06;;;16.17;64.34
59289;BME280;45056;47.602;9.886;2022-07-01T09:25:43;93258.38;;;16.21;64.14
59289;BME280;45056;47.602;9.886;2022-07-01T09:28:16;93252.72;;;16.24;64.51
59289;BME280;45056;47.602;9.886;2022-07-01T09:30:49;93254.31;;;16.31;64.34
59289;BME280;45056;47.602;9.886;2022-07-01T09:33:20;93268.34;;;16.33;63.82
59289;BME280;45056;47.602;9.886;2022-07-01T09:35:51;93271.28;;;16.29;64.12
59289;BME280;45056;47.602;9.886;2022-07-01T09:38:22;93276.78;;;16.29;64.02
59289;BME280;45056;47.602;9.886;2022-07-01T09:40:53;93269.13;;;16.34;64.31
59289;BME280;45056;47.602;9.886;2022-07-01T09:43:25;93264.47;;;16.40;64.48
59289;BME280;45056;47.602;9.886;2022-07-01T09:45:58;93272.06;;;16.45;63.91
59289;BME280;45056;47.602;9.886;2022-07-01T09:48:42;93260.78;;;16.43;63.77
59289;BME280;45056;47.602;9.886;2022-07-01T09:51:14;93265.34;;;16.46;63.69
59289;BME280;45056;47.602;9.886;2022-07-01T09:53:43;93260.13;;;16.48;63.49
59289;BME280;45056;47.602;9.886;2022-07-01T09:56:11;93268.84;;;16.47;63.13
59289;BME280;45056;47.602;9.886;2022-07-01T09:58:39;93269.59;;;16.47;63.24
59289;BME280;45056;47.602;9.886;2022-07-01T10:01:11;93278.13;;;16.49;63.25
59289;BME280;45056;47.602;9.886;2022-07-01T10:03:41;93274.72;;;16.54;63.60
59289;BME280;45056;47.602;9.886;2022-07-01T10:06:31;93277.84;;;16.62;63.46
59289;BME280;45056;47.602;9.886;2022-07-01T10:09:35;93284.69;;;16.67;63.55
59289;BME280;45056;47.602;9.886;2022-07-01T10:12:32;93288.47;;;16.69;63.88
59289;BME280;45056;47.602;9.886;2022-07-01T10:15:05;93296.53;;;16.73;63.53
59289;BME280;45056;47.602;9.886;2022-07-01T10:17:44;93292.25;;;16.72;63.75
59289;BME280;45056;47.602;9.886;2022-07-01T10:20:15;93293.78;;;16.73;64.04
59289;BME280;45056;47.602;9.886;2022-07-01T10:22:46;93304.31;;;16.75;64.44
59289;BME280;45056;47.602;9.886;2022-07-01T10:28:26;93310.66;;;16.81;64.71
59289;BME280;45056;47.602;9.886;2022-07-01T10:30:58;93308.19;;;16.83;64.57
59289;BME280;45056;47.602;9.886;2022-07-01T10:33:37;93302.03;;;16.88;64.38
59289;BME280;45056;47.602;9.886;2022-07-01T10:36:10;93312.56;;;16.90;64.71
59289;BME280;45056;47.602;9.886;2022-07-01T10:39:09;93322.59;;;16.93;64.52
59289;BME280;45056;47.602;9.886;2022-07-01T10:41:42;93311.88;;;16.95;64.35
59289;BME280;45056;47.602;9.886;2022-07-01T10:44:25;93317.84;;;16.93;64.09
59289;BME280;45056;47.602;9.886;2022-07-01T10:46:55;93324.56;;;16.92;64.22
59289;BME280;45056;47.602;9.886;2022-07-01T10:49:52;93333.59;;;16.93;64.22
59289;BME280;45056;47.602;9.886;2022-07-01T10:52:30;93341.84;;;16.93;64.08
59289;BME280;45056;47.602;9.886;2022-07-01T10:55:01;93343.25;;;16.88;63.74
59289;BME280;45056;47.602;9.886;2022-07-01T10:57:34;93344.66;;;16.83;64.02
59289;BME280;45056;47.602;9.886;2022-07-01T11:00:30;93358.03;;;16.76;63.79
59289;BME280;45056;47.602;9.886;2022-07-01T11:03:12;93362.66;;;16.69;64.02
59289;BME280;45056;47.602;9.886;2022-07-01T11:05:46;93355.03;;;16.64;64.29
59289;BME280;45056;47.602;9.886;2022-07-01T11:08:16;93332.50;;;16.60;64.71
59289;BME280;45056;47.602;9.886;2022-07-01T11:10:44;93351.44;;;16.58;65.17
59289;BME280;45056;47.602;9.886;2022-07-01T11:13:17;93352.66;;;16.57;65.26
59289;BME280;45056;47.602;9.886;2022-07-01T11:15:47;93358.66;;;16.55;65.31
59289;BME280;45056;47.602;9.886;2022-07-01T11:18:16;93374.81;;;16.53;65.66
59289;BME280;45056;47.602;9.886;2022-07-01T11:20:47;93401.69;;;16.49;65.73
59289;BME280;45056;47.602;9.886;2022-07-01T11:23:15;93411.81;;;16.43;65.70
59289;BME280;45056;47.602;9.886;2022-07-01T11:25:46;93388.41;;;16.33;65.53
59289;BME280;45056;47.602;9.886;2022-07-01T11:28:14;93380.53;;;16.25;65.87
59289;BME280;45056;47.602;9.886;2022-07-01T11:30:42;93365.63;;;16.17;66.03
59289;BME280;45056;47.602;9.886;2022-07-01T11:33:11;93363.53;;;16.12;66.00
59289;BME280;45056;47.602;9.886;2022-07-01T11:35:42;93372.69;;;16.09;66.21
59289;BME280;45056;47.602;9.886;2022-07-01T11:38:29;93376.06;;;16.04;66.26
59289;BME280;45056;47.602;9.886;2022-07-01T11:41:19;93354.28;;;16.00;66.19
59289;BME280;45056;47.602;9.886;2022-07-01T11:43:48;93333.75;;;15.95;66.24
59289;BME280;45056;47.602;9.886;2022-07-01T11:46:18;93322.94;;;15.92;66.40
59289;BME280;45056;47.602;9.886;2022-07-01T11:48:48;93294.44;;;15.89;66.50
59289;BME280;45056;47.602;9.886;2022-07-01T11:51:19;93297.34;;;15.85;66.72
59289;BME280;45056;47.602;9.886;2022-07-01T11:53:53;93298.09;;;15.86;67.01
59289;BME280;45056;47.602;9.886;2022-07-01T11:56:30;93311.78;;;15.95;67.13
59289;BME280;45056;47.602;9.886;2022-07-01T11:58:58;93329.72;;;16.06;66.90
59289;BME280;45056;47.602;9.886;2022-07-01T12:01:29;93335.63;;;16.13;67.14
59289;BME280;45056;47.602;9.886;2022-07-01T12:04:01;93340.16;;;16.17;66.88
59289;BME280;45056;47.602;9.886;2022-07-01T12:06:31;93331.44;;;16.18;66.17
59289;BME280;45056;47.602;9.886;2022-07-01T12:09:02;93362.88;;;16.17;65.43
59289;BME280;45056;47.602;9.886;2022-07-01T12:11:31;93377.81;;;16.16;65.53
59289;BME280;45056;47.602;9.886;2022-07-01T12:13:59;93378.59;;;16.17;65.63
59289;BME280;45056;47.602;9.886;2022-07-01T12:16:28;93400.06;;;16.18;65.80
59289;BME280;45056;47.602;9.886;2022-07-01T12:19:06;93398.84;;;16.19;65.82
59289;BME280;45056;47.602;9.886;2022-07-01T12:21:48;93390.59;;;16.19;65.76
59289;BME280;45056;47.602;9.886;2022-07-01T12:24:20;93382.97;;;16.23;66.25
59289;BME280;45056;47.602;9.886;2022-07-01T12:26:51;93375.63;;;16.29;66.13
59289;BME280;45056;47.602;9.886;2022-07-01T12:29:22;93364.28;;;16.37;66.22
59289;BME280;45056;47.602;9.886;2022-07-01T12:31:59;93362.97;;;16.47;65.94
59289;BME280;45056;47.602;9.886;2022-07-01T12:34:39;93354.66;;;16.56;65.54
59289;BME280;45056;47.602;9.886;2022-07-01T12:37:11;93374.56;;;16.66;65.37
59289;BME280;45056;47.602;9.886;2022-07-01T12:39:47;93386.91;;;16.71;65.34
59289;BME280;45056;47.602;9.886;2022-07-01T12:42:23;93384.16;;;16.71;64.69
59289;BME280;45056;47.602;9.886;2022-07-01T12:44:54;93367.84;;;16.67;64.30
59289;BME280;45056;47.602;9.886;2022-07-01T12:47:29;93384.03;;;16.65;63.68
59289;BME280;45056;47.602;9.886;2022-07-01T12:50:16;93386.78;;;16.65;63.83
59289;BME280;45056;47.602;9.886;2022-07-01T12:52:58;93384.81;;;16.66;64.16
59289;BME280;45056;47.602;9.886;2022-07-01T12:55:32;93380.84;;;16.67;63.79
59289;BME280;45056;47.602;9.886;2022-07-01T12:58:04;93379.13;;;16.69;64.20
59289;BME280;45056;47.602;9.886;2022-07-01T13:00:35;93373.44;;;16.73;64.28
59289;BME280;45056;47.602;9.886;2022-07-01T13:03:06;93364.53;;;16.78;64.66
59289;BME280;45056;47.602;9.886;2022-07-01T13:05:36;93352.59;;;16.81;64.88
59289;BME280;45056;47.602;9.886;2022-07-01T13:08:07;93367.97;;;16.88;64.83
59289;BME280;45056;47.602;9.886;2022-07-01T13:10:38;93395.28;;;16.92;65.11
59289;BME280;45056;47.602;9.886;2022-07-01T13:13:06;93401.81;;;16.94;64.72
59289;BME280;45056;47.602;9.886;2022-07-01T13:15:35;93401.34;;;16.96;63.85
59289;BME280;45056;47.602;9.886;2022-07-01T13:18:04;93410.66;;;16.98;63.82
59289;BME280;45056;47.602;9.886;2022-07-01T13:20:32;93419.78;;;17.05;63.57